OCN282 EDDM-LGKR
Flight info
| Callsign | OCN282 |
|---|---|
| Flight time | 2h 27m |
| Altitude | 37000 |
| Route | VAVOR3E/08R VAVOR M867 RADIZ DCT GIMIX DCT SABAD DCT SIRMI DCT TIKSA DCT RODON DCT LIMJA N732 PITAS |
| Aircraft | A320/M-SDE3FGHIRWY/LB1 |
Departure
| Time | 2026-05-04 11:33 |
|---|---|
| Airport | Munich Airport (EDDM) |
Arrival
| Time | 2026-05-04 14:00 |
|---|---|
| Airport | Corfu Ioannis Kapodistrias International Airport (LGKR) |
| Time | Latitude | Longitude | Altitude | Speed | Heading |
|---|---|---|---|---|---|
| 2026-05-04 11:12 | 48.35842 | 11.79234 | 1479 ft | 0 kts | 262° |
| 2026-05-04 11:19 | 48.35842 | 11.79235 | 1479 ft | 1 kts | 262° |
| 2026-05-04 11:20 | 48.35844 | 11.79256 | 1480 ft | 2 kts | 262° |
| 2026-05-04 11:20 | 48.35846 | 11.79278 | 1480 ft | 2 kts | 262° |
| 2026-05-04 11:20 | 48.35847 | 11.79300 | 1480 ft | 2 kts | 262° |
| 2026-05-04 11:20 | 48.35849 | 11.79322 | 1480 ft | 2 kts | 262° |
| 2026-05-04 11:22 | 48.35826 | 11.79390 | 1478 ft | 0 kts | 354° |
| 2026-05-04 11:24 | 48.35702 | 11.79478 | 1472 ft | 18 kts | 173° |
| 2026-05-04 11:25 | 48.35560 | 11.79503 | 1467 ft | 22 kts | 173° |
| 2026-05-04 11:25 | 48.35402 | 11.79529 | 1467 ft | 23 kts | 174° |
| 2026-05-04 11:25 | 48.35241 | 11.79556 | 1469 ft | 23 kts | 173° |
| 2026-05-04 11:26 | 48.34966 | 11.79552 | 1471 ft | 15 kts | 205° |
| 2026-05-04 11:27 | 48.34700 | 11.78357 | 1473 ft | 15 kts | 263° |
| 2026-05-04 11:28 | 48.34689 | 11.78222 | 1472 ft | 11 kts | 263° |
| 2026-05-04 11:28 | 48.34679 | 11.78089 | 1471 ft | 13 kts | 263° |
| 2026-05-04 11:28 | 48.34667 | 11.77939 | 1471 ft | 14 kts | 264° |
| 2026-05-04 11:28 | 48.34655 | 11.77777 | 1472 ft | 16 kts | 263° |
| 2026-05-04 11:29 | 48.34642 | 11.77604 | 1474 ft | 17 kts | 263° |
| 2026-05-04 11:29 | 48.34628 | 11.77427 | 1475 ft | 17 kts | 264° |
| 2026-05-04 11:29 | 48.34615 | 11.77243 | 1474 ft | 18 kts | 264° |
| 2026-05-04 11:29 | 48.34600 | 11.77053 | 1475 ft | 18 kts | 263° |
| 2026-05-04 11:31 | 48.34465 | 11.75780 | 1477 ft | 12 kts | 184° |
| 2026-05-04 11:33 | 48.34343 | 11.78687 | 1482 ft | 167 kts | 83° |
| 2026-05-04 11:33 | 48.34462 | 11.80443 | 2053 ft | 174 kts | 83° |
| 2026-05-04 11:33 | 48.34592 | 11.82243 | 2820 ft | 176 kts | 82° |
| 2026-05-04 11:34 | 48.34745 | 11.84053 | 3544 ft | 179 kts | 82° |
| 2026-05-04 11:34 | 48.34898 | 11.85968 | 3952 ft | 195 kts | 83° |
| 2026-05-04 11:34 | 48.35062 | 11.88100 | 4347 ft | 214 kts | 83° |
| 2026-05-04 11:34 | 48.35237 | 11.90338 | 4873 ft | 226 kts | 83° |
| 2026-05-04 11:35 | 48.35421 | 11.92788 | 5406 ft | 242 kts | 86° |
| 2026-05-04 11:35 | 48.35186 | 11.95294 | 6130 ft | 249 kts | 115° |
| 2026-05-04 11:35 | 48.34144 | 11.97305 | 6951 ft | 252 kts | 140° |
| 2026-05-04 11:35 | 48.32773 | 11.98886 | 7800 ft | 254 kts | 143° |
| 2026-05-04 11:36 | 48.31362 | 12.00498 | 8660 ft | 256 kts | 143° |
| 2026-05-04 11:36 | 48.29911 | 12.02000 | 9500 ft | 257 kts | 156° |
| 2026-05-04 11:36 | 48.28219 | 12.02702 | 10296 ft | 259 kts | 176° |
| 2026-05-04 11:36 | 48.26374 | 12.02682 | 10828 ft | 274 kts | 183° |
| 2026-05-04 11:37 | 48.24452 | 12.02538 | 11477 ft | 284 kts | 183° |
| 2026-05-04 11:37 | 48.22462 | 12.02392 | 12285 ft | 288 kts | 183° |
| 2026-05-04 11:37 | 48.20450 | 12.02257 | 13080 ft | 292 kts | 183° |
| 2026-05-04 11:37 | 48.18418 | 12.02131 | 13845 ft | 295 kts | 183° |
| 2026-05-04 11:38 | 48.16385 | 12.02022 | 14589 ft | 299 kts | 180° |
| 2026-05-04 11:38 | 48.14296 | 12.02348 | 15310 ft | 304 kts | 169° |
| 2026-05-04 11:38 | 48.12291 | 12.03311 | 16006 ft | 310 kts | 160° |
| 2026-05-04 11:38 | 48.10289 | 12.04577 | 16681 ft | 315 kts | 159° |
| 2026-05-04 11:39 | 48.08296 | 12.05876 | 17330 ft | 319 kts | 159° |
| 2026-05-04 11:39 | 48.06249 | 12.07209 | 17983 ft | 323 kts | 159° |
| 2026-05-04 11:40 | 47.93582 | 12.15640 | 21750 ft | 345 kts | 150° |
| 2026-05-04 11:41 | 47.91607 | 12.17679 | 22203 ft | 354 kts | 144° |
| 2026-05-04 11:41 | 47.89664 | 12.20059 | 22469 ft | 368 kts | 142° |
| 2026-05-04 11:41 | 47.87703 | 12.22543 | 22887 ft | 375 kts | 141° |
| 2026-05-04 11:41 | 47.85726 | 12.25055 | 23426 ft | 378 kts | 141° |
| 2026-05-04 11:42 | 47.83720 | 12.27593 | 23976 ft | 381 kts | 141° |
| 2026-05-04 11:42 | 47.81699 | 12.30139 | 24487 ft | 385 kts | 142° |
| 2026-05-04 11:42 | 47.79627 | 12.32739 | 24993 ft | 389 kts | 142° |
| 2026-05-04 11:42 | 47.77557 | 12.35332 | 25482 ft | 392 kts | 142° |
| 2026-05-04 11:43 | 47.75484 | 12.37924 | 25965 ft | 395 kts | 142° |
| 2026-05-04 11:43 | 47.73388 | 12.40540 | 26439 ft | 398 kts | 142° |
| 2026-05-04 11:43 | 47.71246 | 12.43208 | 26917 ft | 401 kts | 142° |
| 2026-05-04 11:43 | 47.69110 | 12.45851 | 27363 ft | 404 kts | 142° |
| 2026-05-04 11:44 | 47.66946 | 12.48518 | 27798 ft | 407 kts | 142° |
| 2026-05-04 11:44 | 47.64771 | 12.51196 | 28224 ft | 410 kts | 142° |
| 2026-05-04 11:44 | 47.62570 | 12.53864 | 28638 ft | 412 kts | 144° |
| 2026-05-04 11:44 | 47.60269 | 12.56414 | 29048 ft | 415 kts | 145° |
| 2026-05-04 11:45 | 47.57935 | 12.58960 | 29435 ft | 418 kts | 145° |
| 2026-05-04 11:45 | 47.55616 | 12.61485 | 29816 ft | 420 kts | 145° |
| 2026-05-04 11:45 | 47.53243 | 12.64066 | 30194 ft | 423 kts | 145° |
| 2026-05-04 11:45 | 47.50865 | 12.66652 | 30547 ft | 426 kts | 146° |
| 2026-05-04 11:46 | 47.48484 | 12.69240 | 30920 ft | 428 kts | 146° |
| 2026-05-04 11:46 | 47.46086 | 12.71843 | 31283 ft | 430 kts | 146° |
| 2026-05-04 11:46 | 47.43658 | 12.74475 | 31630 ft | 432 kts | 146° |
| 2026-05-04 11:46 | 47.41270 | 12.77062 | 31963 ft | 434 kts | 146° |
| 2026-05-04 11:47 | 47.38840 | 12.79692 | 32283 ft | 436 kts | 146° |
| 2026-05-04 11:47 | 47.36386 | 12.82343 | 32603 ft | 438 kts | 146° |
| 2026-05-04 11:47 | 47.33940 | 12.84982 | 32906 ft | 440 kts | 146° |
| 2026-05-04 11:47 | 47.31461 | 12.87655 | 33190 ft | 442 kts | 146° |
| 2026-05-04 11:48 | 47.28959 | 12.90349 | 33476 ft | 444 kts | 146° |
| 2026-05-04 11:48 | 47.26479 | 12.93018 | 33765 ft | 445 kts | 146° |
| 2026-05-04 11:48 | 47.23998 | 12.95683 | 34062 ft | 446 kts | 146° |
| 2026-05-04 11:48 | 47.21479 | 12.98385 | 34434 ft | 445 kts | 146° |
| 2026-05-04 11:49 | 47.18988 | 13.01056 | 34813 ft | 444 kts | 146° |
| 2026-05-04 11:49 | 47.16515 | 13.03703 | 35142 ft | 443 kts | 146° |
| 2026-05-04 11:49 | 47.14046 | 13.06342 | 35442 ft | 442 kts | 146° |
| 2026-05-04 11:49 | 47.11546 | 13.09011 | 35698 ft | 442 kts | 146° |
| 2026-05-04 11:50 | 47.09070 | 13.11650 | 35919 ft | 443 kts | 146° |
| 2026-05-04 11:50 | 47.06596 | 13.14286 | 36128 ft | 444 kts | 146° |
| 2026-05-04 11:50 | 47.04075 | 13.16967 | 36332 ft | 445 kts | 146° |
| 2026-05-04 11:50 | 47.01603 | 13.19595 | 36526 ft | 446 kts | 146° |
| 2026-05-04 11:51 | 46.99070 | 13.22284 | 36727 ft | 446 kts | 146° |
| 2026-05-04 11:51 | 46.96568 | 13.24937 | 36937 ft | 447 kts | 146° |
| 2026-05-04 11:51 | 46.94063 | 13.27592 | 37137 ft | 448 kts | 146° |
| 2026-05-04 11:52 | 46.89002 | 13.32944 | 37136 ft | 449 kts | 146° |
| 2026-05-04 11:52 | 46.83952 | 13.38271 | 37138 ft | 450 kts | 146° |
| 2026-05-04 11:53 | 46.78865 | 13.43624 | 37132 ft | 451 kts | 146° |
| 2026-05-04 11:53 | 46.73790 | 13.48954 | 37125 ft | 451 kts | 146° |
| 2026-05-04 11:55 | 46.53452 | 13.70184 | 37107 ft | 452 kts | 146° |
| 2026-05-04 11:56 | 46.48426 | 13.75702 | 37109 ft | 453 kts | 144° |
| 2026-05-04 11:56 | 46.43473 | 13.81216 | 37106 ft | 453 kts | 144° |
| 2026-05-04 11:57 | 46.38487 | 13.86763 | 37105 ft | 454 kts | 144° |
| 2026-05-04 11:57 | 46.33460 | 13.92342 | 37110 ft | 455 kts | 144° |
| 2026-05-04 11:58 | 46.28462 | 13.97874 | 37107 ft | 455 kts | 144° |
| 2026-05-04 11:58 | 46.23461 | 14.03397 | 37109 ft | 454 kts | 144° |
| 2026-05-04 11:59 | 46.18436 | 14.08934 | 37091 ft | 454 kts | 144° |
| 2026-05-04 11:59 | 46.13433 | 14.14433 | 37083 ft | 455 kts | 144° |
| 2026-05-04 12:00 | 46.08419 | 14.19933 | 37075 ft | 455 kts | 144° |
| 2026-05-04 12:00 | 46.03386 | 14.25439 | 37075 ft | 456 kts | 143° |
| 2026-05-04 12:01 | 45.98349 | 14.30941 | 37067 ft | 456 kts | 144° |
| 2026-05-04 12:02 | 45.80657 | 14.50154 | 37081 ft | 458 kts | 144° |
| 2026-05-04 12:03 | 45.75573 | 14.55648 | 37094 ft | 458 kts | 144° |
| 2026-05-04 12:03 | 45.70511 | 14.61103 | 37106 ft | 458 kts | 144° |
| 2026-05-04 12:04 | 45.65407 | 14.66591 | 37106 ft | 459 kts | 144° |
| 2026-05-04 12:04 | 45.60312 | 14.72058 | 37104 ft | 459 kts | 144° |
| 2026-05-04 12:05 | 45.55219 | 14.77511 | 37102 ft | 459 kts | 144° |
| 2026-05-04 12:05 | 45.50129 | 14.82947 | 37105 ft | 460 kts | 144° |
| 2026-05-04 12:06 | 45.45038 | 14.88408 | 37109 ft | 460 kts | 143° |
| 2026-05-04 12:06 | 45.39996 | 14.94064 | 37117 ft | 461 kts | 143° |
| 2026-05-04 12:07 | 45.35003 | 14.99680 | 37116 ft | 461 kts | 143° |
| 2026-05-04 12:07 | 45.29982 | 15.05299 | 37107 ft | 462 kts | 142° |
| 2026-05-04 12:08 | 45.24929 | 15.10936 | 37109 ft | 463 kts | 142° |
| 2026-05-04 12:08 | 45.19868 | 15.16564 | 37107 ft | 463 kts | 142° |
| 2026-05-04 12:09 | 45.14798 | 15.22189 | 37103 ft | 463 kts | 142° |
| 2026-05-04 12:09 | 45.09757 | 15.27769 | 37102 ft | 463 kts | 142° |
| 2026-05-04 12:10 | 45.04681 | 15.33374 | 37105 ft | 463 kts | 142° |
| 2026-05-04 12:10 | 44.99635 | 15.38932 | 37102 ft | 463 kts | 142° |
| 2026-05-04 12:11 | 44.94552 | 15.44521 | 37104 ft | 464 kts | 142° |
| 2026-05-04 12:11 | 44.89451 | 15.50114 | 37102 ft | 465 kts | 142° |
| 2026-05-04 12:12 | 44.84340 | 15.55709 | 37104 ft | 466 kts | 142° |
| 2026-05-04 12:12 | 44.79252 | 15.61263 | 37104 ft | 465 kts | 142° |
| 2026-05-04 12:14 | 44.58758 | 15.83503 | 37103 ft | 467 kts | 143° |
| 2026-05-04 12:15 | 44.53619 | 15.89051 | 37107 ft | 467 kts | 143° |
| 2026-05-04 12:15 | 44.48508 | 15.94556 | 37104 ft | 468 kts | 143° |
| 2026-05-04 12:16 | 44.43342 | 16.00107 | 37109 ft | 468 kts | 143° |
| 2026-05-04 12:16 | 44.38185 | 16.05634 | 37116 ft | 468 kts | 143° |
| 2026-05-04 12:17 | 44.33020 | 16.11156 | 37115 ft | 469 kts | 143° |
| 2026-05-04 12:17 | 44.27844 | 16.16681 | 37123 ft | 470 kts | 143° |
| 2026-05-04 12:18 | 44.22656 | 16.22207 | 37127 ft | 470 kts | 143° |
| 2026-05-04 12:18 | 44.17503 | 16.27683 | 37127 ft | 470 kts | 143° |
| 2026-05-04 12:19 | 44.12178 | 16.32923 | 37130 ft | 470 kts | 147° |
| 2026-05-04 12:19 | 44.06714 | 16.37891 | 37133 ft | 471 kts | 147° |
| 2026-05-04 12:20 | 44.01234 | 16.42865 | 37138 ft | 472 kts | 147° |
| 2026-05-04 12:20 | 43.95743 | 16.47842 | 37141 ft | 472 kts | 147° |
| 2026-05-04 12:21 | 43.90253 | 16.52809 | 37145 ft | 472 kts | 147° |
| 2026-05-04 12:21 | 43.84773 | 16.57757 | 37144 ft | 473 kts | 147° |
| 2026-05-04 12:22 | 43.79264 | 16.62721 | 37139 ft | 473 kts | 147° |
| 2026-05-04 12:22 | 43.73747 | 16.67681 | 37132 ft | 474 kts | 148° |
| 2026-05-04 12:23 | 43.68275 | 16.72589 | 37125 ft | 473 kts | 148° |
| 2026-05-04 12:23 | 43.62761 | 16.77526 | 37122 ft | 473 kts | 147° |
| 2026-05-04 12:24 | 43.57244 | 16.82453 | 37121 ft | 474 kts | 148° |
| 2026-05-04 12:24 | 43.51714 | 16.87380 | 37123 ft | 474 kts | 147° |
| 2026-05-04 12:25 | 43.46181 | 16.92302 | 37120 ft | 475 kts | 148° |
| 2026-05-04 12:25 | 43.40636 | 16.97219 | 37115 ft | 476 kts | 148° |
| 2026-05-04 12:26 | 43.35074 | 17.02145 | 37110 ft | 475 kts | 148° |
| 2026-05-04 12:26 | 43.29522 | 17.07048 | 37100 ft | 476 kts | 148° |
| 2026-05-04 12:27 | 43.23959 | 17.11952 | 37097 ft | 477 kts | 148° |
| 2026-05-04 12:27 | 43.18392 | 17.16848 | 37101 ft | 477 kts | 148° |
| 2026-05-04 12:28 | 43.12821 | 17.21740 | 37101 ft | 477 kts | 148° |
| 2026-05-04 12:28 | 43.07242 | 17.26624 | 37104 ft | 477 kts | 148° |
| 2026-05-04 12:29 | 43.01740 | 17.31657 | 37096 ft | 477 kts | 143° |
| 2026-05-04 12:29 | 42.96627 | 17.37412 | 37093 ft | 478 kts | 139° |
| 2026-05-04 12:30 | 42.91618 | 17.43349 | 37098 ft | 478 kts | 139° |
| 2026-05-04 12:30 | 42.86614 | 17.49258 | 37091 ft | 479 kts | 138° |
| 2026-05-04 12:31 | 42.81579 | 17.55184 | 37096 ft | 480 kts | 138° |
| 2026-05-04 12:31 | 42.76532 | 17.61103 | 37094 ft | 481 kts | 138° |
| 2026-05-04 12:32 | 42.68941 | 17.69980 | 37095 ft | 481 kts | 139° |
| 2026-05-04 12:33 | 42.63876 | 17.75887 | 37092 ft | 481 kts | 139° |
| 2026-05-04 12:33 | 42.58801 | 17.81792 | 37098 ft | 482 kts | 139° |
| 2026-05-04 12:34 | 42.53721 | 17.87690 | 37105 ft | 482 kts | 139° |
| 2026-05-04 12:34 | 42.48637 | 17.93580 | 37103 ft | 482 kts | 139° |
| 2026-05-04 12:35 | 42.43547 | 17.99466 | 37105 ft | 483 kts | 139° |
| 2026-05-04 12:35 | 42.38427 | 18.05371 | 37103 ft | 484 kts | 139° |
| 2026-05-04 12:36 | 42.33316 | 18.11249 | 37107 ft | 484 kts | 139° |
| 2026-05-04 12:36 | 42.28201 | 18.17124 | 37106 ft | 484 kts | 139° |
| 2026-05-04 12:37 | 42.23086 | 18.22986 | 37111 ft | 484 kts | 139° |
| 2026-05-04 12:37 | 42.17963 | 18.28844 | 37105 ft | 484 kts | 139° |
| 2026-05-04 12:38 | 42.12836 | 18.34693 | 37109 ft | 485 kts | 139° |
| 2026-05-04 12:38 | 42.07698 | 18.40541 | 37109 ft | 485 kts | 139° |
| 2026-05-04 12:39 | 42.02553 | 18.46383 | 37113 ft | 486 kts | 139° |
| 2026-05-04 12:39 | 41.97398 | 18.52225 | 37113 ft | 485 kts | 139° |
| 2026-05-04 12:40 | 41.92242 | 18.58052 | 37121 ft | 486 kts | 138° |
| 2026-05-04 12:40 | 41.87071 | 18.63888 | 37113 ft | 486 kts | 138° |
| 2026-05-04 12:41 | 41.81937 | 18.69671 | 37115 ft | 486 kts | 139° |
| 2026-05-04 12:41 | 41.76765 | 18.75478 | 37111 ft | 487 kts | 139° |
| 2026-05-04 12:42 | 41.71587 | 18.81283 | 37107 ft | 486 kts | 139° |
| 2026-05-04 12:42 | 41.66408 | 18.87077 | 37100 ft | 487 kts | 139° |
| 2026-05-04 12:43 | 41.61219 | 18.92870 | 37096 ft | 488 kts | 139° |
| 2026-05-04 12:43 | 41.56029 | 18.98654 | 37092 ft | 482 kts | 139° |
| 2026-05-04 12:43 | 41.53493 | 19.01471 | 37091 ft | 466 kts | 139° |
| 2026-05-04 12:44 | 41.51043 | 19.04192 | 37095 ft | 455 kts | 139° |
| 2026-05-04 12:44 | 41.46204 | 19.09563 | 37093 ft | 453 kts | 139° |
| 2026-05-04 12:44 | 41.43664 | 19.12019 | 37059 ft | 453 kts | 154° |
| 2026-05-04 12:45 | 41.40685 | 19.13278 | 37079 ft | 450 kts | 176° |
| 2026-05-04 12:45 | 41.37607 | 19.13055 | 37094 ft | 440 kts | 200° |
| 2026-05-04 12:45 | 41.34878 | 19.11421 | 37095 ft | 425 kts | 223° |
| 2026-05-04 12:45 | 41.32908 | 19.08716 | 37105 ft | 407 kts | 245° |
| 2026-05-04 12:46 | 41.31809 | 19.05349 | 37112 ft | 393 kts | 263° |
| 2026-05-04 12:46 | 41.31507 | 19.01823 | 37101 ft | 380 kts | 278° |
| 2026-05-04 12:46 | 41.31945 | 18.98425 | 37101 ft | 370 kts | 294° |
| 2026-05-04 12:46 | 41.33052 | 18.95394 | 37100 ft | 363 kts | 308° |
| 2026-05-04 12:47 | 41.34726 | 18.92927 | 37108 ft | 360 kts | 320° |
| 2026-05-04 12:47 | 41.38518 | 18.88597 | 37107 ft | 360 kts | 320° |
| 2026-05-04 12:48 | 41.42292 | 18.84234 | 37106 ft | 360 kts | 320° |
| 2026-05-04 12:48 | 41.46518 | 18.80839 | 37096 ft | 360 kts | 345° |
| 2026-05-04 12:48 | 41.49017 | 18.80490 | 37098 ft | 366 kts | 0° |
| 2026-05-04 12:49 | 41.51534 | 18.81140 | 37100 ft | 375 kts | 16° |
| 2026-05-04 12:49 | 41.53851 | 18.82806 | 37093 ft | 386 kts | 32° |
| 2026-05-04 12:49 | 41.55725 | 18.85430 | 37094 ft | 400 kts | 50° |
| 2026-05-04 12:49 | 41.56913 | 18.88828 | 37096 ft | 415 kts | 69° |
| 2026-05-04 12:50 | 41.57206 | 18.92698 | 37093 ft | 430 kts | 90° |
| 2026-05-04 12:50 | 41.56482 | 18.96545 | 37092 ft | 442 kts | 111° |
| 2026-05-04 12:50 | 41.54733 | 18.99946 | 37096 ft | 451 kts | 134° |
| 2026-05-04 12:51 | 41.49952 | 19.05370 | 37103 ft | 452 kts | 139° |
| 2026-05-04 12:51 | 41.45146 | 19.10756 | 37092 ft | 452 kts | 140° |
| 2026-05-04 12:51 | 41.42458 | 19.12891 | 37065 ft | 452 kts | 161° |
| 2026-05-04 12:52 | 41.39404 | 19.13638 | 37085 ft | 446 kts | 185° |
| 2026-05-04 12:52 | 41.36410 | 19.12906 | 37093 ft | 434 kts | 208° |
| 2026-05-04 12:52 | 41.33910 | 19.10845 | 37099 ft | 417 kts | 231° |
| 2026-05-04 12:52 | 41.32256 | 19.07818 | 37104 ft | 400 kts | 253° |
| 2026-05-04 12:53 | 41.31494 | 19.04352 | 37110 ft | 387 kts | 269° |
| 2026-05-04 12:53 | 41.31469 | 19.00850 | 37101 ft | 376 kts | 283° |
| 2026-05-04 12:53 | 41.32126 | 18.97553 | 37100 ft | 367 kts | 298° |
| 2026-05-04 12:53 | 41.33405 | 18.94679 | 37101 ft | 361 kts | 312° |
| 2026-05-04 12:54 | 41.35187 | 18.92365 | 37115 ft | 359 kts | 321° |
| 2026-05-04 12:54 | 41.38982 | 18.88055 | 37103 ft | 360 kts | 320° |
| 2026-05-04 12:55 | 41.42732 | 18.83724 | 37101 ft | 360 kts | 320° |
| 2026-05-04 12:55 | 41.44737 | 18.81754 | 37083 ft | 359 kts | 333° |
| 2026-05-04 12:55 | 41.47094 | 18.80670 | 37096 ft | 362 kts | 348° |
| 2026-05-04 12:55 | 41.49614 | 18.80547 | 37095 ft | 368 kts | 4° |
| 2026-05-04 12:56 | 41.52101 | 18.81436 | 37098 ft | 377 kts | 20° |
| 2026-05-04 12:56 | 41.54331 | 18.83332 | 37094 ft | 388 kts | 36° |
| 2026-05-04 12:56 | 41.56064 | 18.86147 | 37094 ft | 403 kts | 54° |
| 2026-05-04 12:56 | 41.57064 | 18.89681 | 37095 ft | 418 kts | 74° |
| 2026-05-04 12:57 | 41.57131 | 18.93597 | 37092 ft | 433 kts | 95° |
| 2026-05-04 12:57 | 41.56157 | 18.97420 | 37092 ft | 444 kts | 117° |
| 2026-05-04 12:57 | 41.54205 | 19.00623 | 37106 ft | 450 kts | 136° |
| 2026-05-04 12:58 | 41.49401 | 19.05978 | 37100 ft | 452 kts | 139° |
| 2026-05-04 12:58 | 41.44595 | 19.11328 | 37084 ft | 452 kts | 144° |
| 2026-05-04 12:58 | 41.41799 | 19.13174 | 37069 ft | 451 kts | 167° |
| 2026-05-04 12:59 | 41.38722 | 19.13581 | 37088 ft | 443 kts | 190° |
| 2026-05-04 12:59 | 41.35813 | 19.12523 | 37095 ft | 430 kts | 213° |
| 2026-05-04 12:59 | 41.33488 | 19.10205 | 37097 ft | 412 kts | 236° |
| 2026-05-04 12:59 | 41.32058 | 19.07043 | 37109 ft | 395 kts | 257° |
| 2026-05-04 13:00 | 41.31458 | 19.03564 | 37109 ft | 383 kts | 272° |
| 2026-05-04 13:00 | 41.31576 | 19.00096 | 37098 ft | 373 kts | 287° |
| 2026-05-04 13:00 | 41.32370 | 18.96876 | 37102 ft | 365 kts | 301° |
| 2026-05-04 13:00 | 41.33773 | 18.94118 | 37099 ft | 360 kts | 315° |
| 2026-05-04 13:01 | 41.35613 | 18.91889 | 37111 ft | 359 kts | 321° |
| 2026-05-04 13:01 | 41.39390 | 18.87585 | 37099 ft | 358 kts | 320° |
| 2026-05-04 13:02 | 41.43148 | 18.83247 | 37099 ft | 358 kts | 321° |
| 2026-05-04 13:02 | 41.45222 | 18.81443 | 37087 ft | 358 kts | 336° |
| 2026-05-04 13:02 | 41.47625 | 18.80561 | 37095 ft | 363 kts | 352° |
| 2026-05-04 13:02 | 41.50155 | 18.80652 | 37097 ft | 369 kts | 7° |
| 2026-05-04 13:03 | 41.52606 | 18.81756 | 37095 ft | 379 kts | 23° |
| 2026-05-04 13:03 | 41.54750 | 18.83857 | 37091 ft | 391 kts | 40° |
| 2026-05-04 13:03 | 41.56345 | 18.86840 | 37093 ft | 405 kts | 59° |
| 2026-05-04 13:03 | 41.57163 | 18.90478 | 37093 ft | 421 kts | 78° |
| 2026-05-04 13:04 | 41.57016 | 18.94412 | 37092 ft | 435 kts | 99° |
| 2026-05-04 13:04 | 41.55830 | 18.98145 | 37091 ft | 446 kts | 122° |
| 2026-05-04 13:04 | 41.53728 | 19.01188 | 37117 ft | 451 kts | 137° |
| 2026-05-04 13:05 | 41.48913 | 19.06516 | 37095 ft | 451 kts | 139° |
| 2026-05-04 13:05 | 41.44085 | 19.11799 | 37069 ft | 451 kts | 148° |
| 2026-05-04 13:05 | 41.41209 | 19.13367 | 37074 ft | 449 kts | 172° |
| 2026-05-04 13:06 | 41.38138 | 19.13473 | 37091 ft | 440 kts | 195° |
| 2026-05-04 13:06 | 41.35317 | 19.12137 | 37100 ft | 427 kts | 218° |
| 2026-05-04 13:06 | 41.33156 | 19.09608 | 37099 ft | 408 kts | 241° |
| 2026-05-04 13:06 | 41.31904 | 19.06340 | 37112 ft | 393 kts | 260° |
| 2026-05-04 13:07 | 41.31443 | 19.02842 | 37108 ft | 381 kts | 275° |
| 2026-05-04 13:07 | 41.31697 | 18.99409 | 37100 ft | 371 kts | 289° |
| 2026-05-04 13:07 | 41.32621 | 18.96268 | 37104 ft | 363 kts | 303° |
| 2026-05-04 13:07 | 41.34134 | 18.93628 | 37103 ft | 359 kts | 318° |
| 2026-05-04 13:08 | 41.36006 | 18.91449 | 37108 ft | 359 kts | 320° |
| 2026-05-04 13:08 | 41.39777 | 18.87139 | 37100 ft | 358 kts | 320° |
| 2026-05-04 13:09 | 41.43534 | 18.82819 | 37097 ft | 358 kts | 323° |
| 2026-05-04 13:09 | 41.45686 | 18.81190 | 37090 ft | 359 kts | 339° |
| 2026-05-04 13:09 | 41.48127 | 18.80501 | 37095 ft | 363 kts | 355° |
| 2026-05-04 13:09 | 41.50653 | 18.80790 | 37095 ft | 370 kts | 10° |
| 2026-05-04 13:10 | 41.53059 | 18.82093 | 37093 ft | 380 kts | 26° |
| 2026-05-04 13:10 | 41.55114 | 18.84375 | 37092 ft | 393 kts | 44° |
| 2026-05-04 13:10 | 41.56575 | 18.87509 | 37093 ft | 408 kts | 62° |
| 2026-05-04 13:10 | 41.57216 | 18.91236 | 37094 ft | 423 kts | 82° |
| 2026-05-04 13:11 | 41.56868 | 18.95166 | 37092 ft | 436 kts | 103° |
| 2026-05-04 13:11 | 41.55490 | 18.98787 | 37091 ft | 446 kts | 126° |
| 2026-05-04 13:11 | 41.53284 | 19.01694 | 37115 ft | 449 kts | 138° |
| 2026-05-04 13:12 | 41.48479 | 19.06998 | 37093 ft | 449 kts | 139° |
| 2026-05-04 13:12 | 41.43612 | 19.12180 | 37063 ft | 451 kts | 152° |
| 2026-05-04 13:12 | 41.40673 | 19.13501 | 37077 ft | 447 kts | 176° |
| 2026-05-04 13:13 | 41.37618 | 19.13347 | 37089 ft | 437 kts | 199° |
| 2026-05-04 13:13 | 41.34894 | 19.11779 | 37101 ft | 422 kts | 222° |
| 2026-05-04 13:13 | 41.32895 | 19.09087 | 37099 ft | 403 kts | 245° |
| 2026-05-04 13:13 | 41.31794 | 19.05764 | 37109 ft | 389 kts | 262° |
| 2026-05-04 13:14 | 41.31450 | 19.02274 | 37102 ft | 378 kts | 277° |
| 2026-05-04 13:14 | 41.31810 | 18.98885 | 37100 ft | 368 kts | 291° |
| 2026-05-04 13:14 | 41.32825 | 18.95819 | 37102 ft | 362 kts | 306° |
| 2026-05-04 13:14 | 41.34415 | 18.93278 | 37104 ft | 358 kts | 319° |
| 2026-05-04 13:15 | 41.36298 | 18.91122 | 37105 ft | 358 kts | 321° |
| 2026-05-04 13:15 | 41.40061 | 18.86813 | 37100 ft | 358 kts | 320° |
| 2026-05-04 13:16 | 41.43834 | 18.82509 | 37094 ft | 358 kts | 326° |
| 2026-05-04 13:16 | 41.46044 | 18.81019 | 37094 ft | 359 kts | 342° |
| 2026-05-04 13:16 | 41.48510 | 18.80476 | 37097 ft | 364 kts | 357° |
| 2026-05-04 13:16 | 41.51031 | 18.80919 | 37098 ft | 372 kts | 12° |
| 2026-05-04 13:17 | 41.53396 | 18.82372 | 37092 ft | 382 kts | 29° |
| 2026-05-04 13:17 | 41.55374 | 18.84789 | 37095 ft | 395 kts | 46° |
| 2026-05-04 13:17 | 41.56728 | 18.88030 | 37095 ft | 410 kts | 65° |
| 2026-05-04 13:17 | 41.57230 | 18.91812 | 37095 ft | 425 kts | 85° |
| 2026-05-04 13:18 | 41.56732 | 18.95727 | 37092 ft | 438 kts | 107° |
| 2026-05-04 13:18 | 41.55209 | 18.99258 | 37093 ft | 446 kts | 129° |
| 2026-05-04 13:18 | 41.52942 | 19.02081 | 37112 ft | 448 kts | 139° |
| 2026-05-04 13:19 | 41.48145 | 19.07375 | 37091 ft | 449 kts | 139° |
| 2026-05-04 13:19 | 41.43221 | 19.12445 | 37061 ft | 450 kts | 156° |
| 2026-05-04 13:19 | 41.40239 | 19.13549 | 37078 ft | 446 kts | 179° |
| 2026-05-04 13:20 | 41.37209 | 19.13173 | 37090 ft | 435 kts | 202° |
| 2026-05-04 13:20 | 41.34576 | 19.11413 | 37102 ft | 419 kts | 225° |
| 2026-05-04 13:20 | 41.32714 | 19.08587 | 37104 ft | 401 kts | 248° |
| 2026-05-04 13:20 | 41.31722 | 19.05217 | 37107 ft | 388 kts | 264° |
| 2026-05-04 13:21 | 41.31478 | 19.01725 | 37102 ft | 376 kts | 279° |
| 2026-05-04 13:21 | 41.31940 | 18.98369 | 37103 ft | 367 kts | 294° |
| 2026-05-04 13:21 | 41.33050 | 18.95374 | 37103 ft | 360 kts | 308° |
| 2026-05-04 13:21 | 41.34714 | 18.92928 | 37109 ft | 357 kts | 320° |
| 2026-05-04 13:22 | 41.36598 | 18.90782 | 37102 ft | 358 kts | 320° |
| 2026-05-04 13:22 | 41.40358 | 18.86470 | 37099 ft | 358 kts | 320° |
| 2026-05-04 13:23 | 41.44157 | 18.82212 | 37089 ft | 357 kts | 328° |
| 2026-05-04 13:23 | 41.46418 | 18.80874 | 37096 ft | 359 kts | 344° |
| 2026-05-04 13:23 | 41.48905 | 18.80481 | 37098 ft | 365 kts | 359° |
| 2026-05-04 13:23 | 41.51416 | 18.81080 | 37098 ft | 373 kts | 15° |
| 2026-05-04 13:24 | 41.53737 | 18.82688 | 37091 ft | 384 kts | 32° |
| 2026-05-04 13:24 | 41.55632 | 18.85244 | 37095 ft | 397 kts | 49° |
| 2026-05-04 13:24 | 41.56867 | 18.88590 | 37095 ft | 412 kts | 68° |
| 2026-05-04 13:25 | 41.56564 | 18.96308 | 37093 ft | 439 kts | 110° |
| 2026-05-04 13:25 | 41.54897 | 18.99724 | 37094 ft | 447 kts | 133° |
| 2026-05-04 13:25 | 41.50178 | 19.05117 | 37102 ft | 448 kts | 139° |
| 2026-05-04 13:26 | 41.45420 | 19.10460 | 37095 ft | 448 kts | 139° |
| 2026-05-04 13:26 | 41.42810 | 19.12684 | 37065 ft | 448 kts | 160° |
| 2026-05-04 13:26 | 41.39837 | 19.13557 | 37081 ft | 444 kts | 182° |
| 2026-05-04 13:27 | 41.36841 | 19.12971 | 37092 ft | 432 kts | 206° |
| 2026-05-04 13:27 | 41.34300 | 19.11032 | 37103 ft | 416 kts | 229° |
| 2026-05-04 13:27 | 41.32570 | 19.08100 | 37104 ft | 398 kts | 250° |
| 2026-05-04 13:27 | 41.31675 | 19.04703 | 37106 ft | 386 kts | 266° |
| 2026-05-04 13:28 | 41.31524 | 19.01219 | 37095 ft | 374 kts | 281° |
| 2026-05-04 13:28 | 41.32076 | 18.97906 | 37104 ft | 365 kts | 295° |
| 2026-05-04 13:28 | 41.33272 | 18.94981 | 37103 ft | 359 kts | 310° |
| 2026-05-04 13:28 | 41.34994 | 18.92616 | 37114 ft | 357 kts | 320° |
| 2026-05-04 13:29 | 41.38749 | 18.88327 | 37107 ft | 356 kts | 320° |
| 2026-05-04 13:29 | 41.42484 | 18.84013 | 37098 ft | 356 kts | 320° |
| 2026-05-04 13:30 | 41.46719 | 18.80775 | 37095 ft | 359 kts | 346° |
| 2026-05-04 13:30 | 41.49213 | 18.80500 | 37098 ft | 365 kts | 1° |
| 2026-05-04 13:30 | 41.51707 | 18.81219 | 37096 ft | 373 kts | 17° |
| 2026-05-04 13:31 | 41.53988 | 18.82942 | 37092 ft | 385 kts | 34° |
| 2026-05-04 13:31 | 41.55815 | 18.85598 | 37097 ft | 398 kts | 51° |
| 2026-05-04 13:31 | 41.56954 | 18.89008 | 37097 ft | 413 kts | 71° |
| 2026-05-04 13:31 | 41.57200 | 18.92861 | 37093 ft | 427 kts | 91° |
| 2026-05-04 13:32 | 41.56427 | 18.96714 | 37092 ft | 439 kts | 112° |
| 2026-05-04 13:32 | 41.54659 | 19.00044 | 37096 ft | 446 kts | 134° |
| 2026-05-04 13:32 | 41.49931 | 19.05394 | 37036 ft | 444 kts | 139° |
| 2026-05-04 13:33 | 41.47577 | 19.08016 | 36594 ft | 442 kts | 138° |
| 2026-05-04 13:33 | 41.45242 | 19.10659 | 36052 ft | 443 kts | 139° |
| 2026-05-04 13:33 | 41.42785 | 19.13150 | 35279 ft | 452 kts | 145° |
| 2026-05-04 13:33 | 41.40094 | 19.15382 | 34224 ft | 466 kts | 151° |
| 2026-05-04 13:34 | 41.37155 | 19.17300 | 32934 ft | 481 kts | 158° |
| 2026-05-04 13:34 | 41.34001 | 19.18839 | 31769 ft | 490 kts | 164° |
| 2026-05-04 13:34 | 41.30706 | 19.19947 | 30883 ft | 490 kts | 171° |
| 2026-05-04 13:34 | 41.27364 | 19.20645 | 30251 ft | 485 kts | 174° |
| 2026-05-04 13:35 | 41.24054 | 19.21340 | 29679 ft | 481 kts | 170° |
| 2026-05-04 13:35 | 41.17681 | 19.23713 | 28523 ft | 473 kts | 161° |
| 2026-05-04 13:35 | 41.14604 | 19.25170 | 27959 ft | 469 kts | 160° |
| 2026-05-04 13:36 | 41.11567 | 19.26648 | 27393 ft | 464 kts | 159° |
| 2026-05-04 13:36 | 41.08569 | 19.28112 | 27010 ft | 455 kts | 159° |
| 2026-05-04 13:36 | 41.05643 | 19.29537 | 26754 ft | 443 kts | 159° |
| 2026-05-04 13:36 | 41.02783 | 19.30927 | 26503 ft | 436 kts | 159° |
| 2026-05-04 13:37 | 40.99944 | 19.32304 | 26249 ft | 435 kts | 159° |
| 2026-05-04 13:37 | 40.97115 | 19.33673 | 25993 ft | 432 kts | 159° |
| 2026-05-04 13:37 | 40.94300 | 19.35033 | 25740 ft | 431 kts | 159° |
| 2026-05-04 13:37 | 40.92456 | 19.35922 | 25575 ft | 429 kts | 159° |
| 2026-05-04 13:38 | 40.88701 | 19.37729 | 25235 ft | 427 kts | 159° |
| 2026-05-04 13:38 | 40.85922 | 19.39062 | 24985 ft | 425 kts | 159° |
| 2026-05-04 13:38 | 40.83152 | 19.40394 | 24729 ft | 423 kts | 159° |
| 2026-05-04 13:38 | 40.80396 | 19.41717 | 24473 ft | 421 kts | 159° |
| 2026-05-04 13:39 | 40.77654 | 19.43035 | 24217 ft | 419 kts | 159° |
| 2026-05-04 13:39 | 40.74925 | 19.44342 | 23963 ft | 417 kts | 159° |
| 2026-05-04 13:39 | 40.72212 | 19.45642 | 23706 ft | 415 kts | 159° |
| 2026-05-04 13:39 | 40.69507 | 19.46936 | 23449 ft | 413 kts | 158° |
| 2026-05-04 13:40 | 40.66814 | 19.48223 | 23195 ft | 412 kts | 158° |
| 2026-05-04 13:40 | 40.64135 | 19.49505 | 22940 ft | 409 kts | 159° |
| 2026-05-04 13:40 | 40.61464 | 19.50781 | 22678 ft | 409 kts | 159° |
| 2026-05-04 13:40 | 40.58798 | 19.52052 | 22351 ft | 407 kts | 159° |
| 2026-05-04 13:41 | 40.56151 | 19.53311 | 21963 ft | 404 kts | 159° |
| 2026-05-04 13:41 | 40.53522 | 19.54561 | 21553 ft | 401 kts | 159° |
| 2026-05-04 13:41 | 40.50912 | 19.55799 | 21144 ft | 398 kts | 159° |
| 2026-05-04 13:42 | 40.45748 | 19.58246 | 20311 ft | 392 kts | 159° |
| 2026-05-04 13:42 | 40.43194 | 19.59455 | 19886 ft | 390 kts | 159° |
| 2026-05-04 13:42 | 40.40656 | 19.60656 | 19470 ft | 387 kts | 159° |
| 2026-05-04 13:42 | 40.38134 | 19.61848 | 19051 ft | 385 kts | 159° |
| 2026-05-04 13:43 | 40.35630 | 19.63032 | 18645 ft | 382 kts | 159° |
| 2026-05-04 13:43 | 40.33143 | 19.64205 | 18238 ft | 380 kts | 159° |
| 2026-05-04 13:43 | 40.30665 | 19.65376 | 17826 ft | 377 kts | 159° |
| 2026-05-04 13:43 | 40.28207 | 19.66536 | 17423 ft | 375 kts | 159° |
| 2026-05-04 13:44 | 40.25763 | 19.67687 | 17005 ft | 373 kts | 159° |
| 2026-05-04 13:44 | 40.23329 | 19.68832 | 16592 ft | 371 kts | 159° |
| 2026-05-04 13:44 | 40.20910 | 19.69970 | 16184 ft | 369 kts | 159° |
| 2026-05-04 13:44 | 40.18504 | 19.71100 | 15776 ft | 367 kts | 159° |
| 2026-05-04 13:45 | 40.16111 | 19.72224 | 15373 ft | 365 kts | 159° |
| 2026-05-04 13:45 | 40.13730 | 19.73341 | 14969 ft | 363 kts | 159° |
| 2026-05-04 13:45 | 40.11363 | 19.74451 | 14568 ft | 361 kts | 159° |
| 2026-05-04 13:45 | 40.09008 | 19.75555 | 14166 ft | 359 kts | 159° |
| 2026-05-04 13:46 | 40.06668 | 19.76651 | 13767 ft | 357 kts | 159° |
| 2026-05-04 13:46 | 40.04344 | 19.77741 | 13365 ft | 354 kts | 159° |
| 2026-05-04 13:46 | 40.02033 | 19.78821 | 12963 ft | 352 kts | 159° |
| 2026-05-04 13:46 | 39.99734 | 19.79896 | 12566 ft | 350 kts | 159° |
| 2026-05-04 13:47 | 39.97456 | 19.80959 | 12178 ft | 347 kts | 159° |
| 2026-05-04 13:47 | 39.95199 | 19.82013 | 11789 ft | 344 kts | 159° |
| 2026-05-04 13:47 | 39.92964 | 19.83055 | 11417 ft | 340 kts | 159° |
| 2026-05-04 13:47 | 39.90745 | 19.84036 | 11143 ft | 333 kts | 162° |
| 2026-05-04 13:48 | 39.88547 | 19.84761 | 10985 ft | 321 kts | 167° |
| 2026-05-04 13:48 | 39.86361 | 19.85280 | 10613 ft | 318 kts | 169° |
| 2026-05-04 13:48 | 39.84195 | 19.85754 | 10281 ft | 313 kts | 169° |
| 2026-05-04 13:48 | 39.82066 | 19.86215 | 10112 ft | 308 kts | 169° |
| 2026-05-04 13:49 | 39.79944 | 19.86678 | 9778 ft | 310 kts | 169° |
| 2026-05-04 13:49 | 39.77819 | 19.87145 | 9378 ft | 309 kts | 169° |
| 2026-05-04 13:49 | 39.75708 | 19.87611 | 8998 ft | 307 kts | 169° |
| 2026-05-04 13:49 | 39.73619 | 19.88072 | 8633 ft | 303 kts | 169° |
| 2026-05-04 13:50 | 39.71555 | 19.88528 | 8298 ft | 299 kts | 169° |
| 2026-05-04 13:50 | 39.69517 | 19.88979 | 7956 ft | 296 kts | 169° |
| 2026-05-04 13:50 | 39.67503 | 19.89424 | 7651 ft | 292 kts | 169° |
| 2026-05-04 13:50 | 39.65520 | 19.89862 | 7355 ft | 287 kts | 169° |
| 2026-05-04 13:51 | 39.63569 | 19.90293 | 7077 ft | 282 kts | 169° |
| 2026-05-04 13:51 | 39.61647 | 19.90718 | 6802 ft | 278 kts | 169° |
| 2026-05-04 13:51 | 39.59790 | 19.91251 | 6532 ft | 268 kts | 163° |
| 2026-05-04 13:51 | 39.58031 | 19.91896 | 6278 ft | 260 kts | 162° |
| 2026-05-04 13:52 | 39.54643 | 19.93177 | 5781 ft | 245 kts | 162° |
| 2026-05-04 13:52 | 39.53047 | 19.93780 | 5547 ft | 233 kts | 162° |
| 2026-05-04 13:52 | 39.51531 | 19.94350 | 5334 ft | 222 kts | 162° |
| 2026-05-04 13:53 | 39.50102 | 19.94886 | 5206 ft | 209 kts | 163° |
| 2026-05-04 13:53 | 39.48729 | 19.95400 | 4980 ft | 202 kts | 163° |
| 2026-05-04 13:53 | 39.47402 | 19.95898 | 4778 ft | 195 kts | 163° |
| 2026-05-04 13:54 | 39.44745 | 19.96893 | 4457 ft | 206 kts | 163° |
| 2026-05-04 13:54 | 39.43335 | 19.97141 | 4250 ft | 206 kts | 189° |
| 2026-05-04 13:54 | 39.41489 | 19.94743 | 3756 ft | 194 kts | 263° |
| 2026-05-04 13:55 | 39.41644 | 19.93076 | 3492 ft | 185 kts | 295° |
| 2026-05-04 13:55 | 39.43526 | 19.91271 | 3081 ft | 163 kts | 354° |
| 2026-05-04 13:55 | 39.44569 | 19.91435 | 3005 ft | 145 kts | 19° |
| 2026-05-04 13:56 | 39.45408 | 19.92120 | 2916 ft | 142 kts | 43° |
| 2026-05-04 13:56 | 39.45955 | 19.93174 | 2819 ft | 141 kts | 62° |
| 2026-05-04 13:56 | 39.47143 | 19.95108 | 2453 ft | 138 kts | 27° |
| 2026-05-04 13:57 | 39.48060 | 19.95459 | 2265 ft | 139 kts | 2° |
| 2026-05-04 13:57 | 39.49014 | 19.95300 | 2081 ft | 139 kts | 345° |
| 2026-05-04 13:58 | 39.51781 | 19.94207 | 1502 ft | 138 kts | 337° |
| 2026-05-04 13:58 | 39.53534 | 19.93203 | 1166 ft | 137 kts | 334° |
| 2026-05-04 13:58 | 39.54417 | 19.92730 | 986 ft | 137 kts | 340° |
| 2026-05-04 13:59 | 39.55343 | 19.92428 | 806 ft | 137 kts | 347° |
| 2026-05-04 13:59 | 39.56282 | 19.92205 | 628 ft | 137 kts | 349° |
| 2026-05-04 13:59 | 39.58159 | 19.91744 | 257 ft | 137 kts | 347° |
| 2026-05-04 14:00 | 39.59096 | 19.91495 | 77 ft | 137 kts | 347° |
| 2026-05-04 14:00 | 39.60667 | 19.91092 | 8 ft | 71 kts | 349° |
| 2026-05-04 14:00 | 39.60986 | 19.91012 | 10 ft | 17 kts | 351° |
| 2026-05-04 14:01 | 39.61047 | 19.91075 | 10 ft | 12 kts | 69° |
| 2026-05-04 14:01 | 39.61017 | 19.91125 | 10 ft | 6 kts | 161° |
| 2026-05-04 14:01 | 39.60903 | 19.91160 | 10 ft | 10 kts | 169° |
| 2026-05-04 14:02 | 39.60831 | 19.91178 | 10 ft | 6 kts | 165° |
| 2026-05-04 14:02 | 39.60825 | 19.91235 | 10 ft | 8 kts | 78° |
| 2026-05-04 14:02 | 39.60836 | 19.91307 | 10 ft | 5 kts | 78° |
| 2026-05-04 14:02 | 39.60838 | 19.91318 | 10 ft | 0 kts | 78° |